Time,TemperatureF,DewpointF,PressureIn,WindDirection,WindDirectionDegrees,WindSpeedMPH,WindSpeedGustMPH,Humidity,HourlyPrecipIn,Conditions,Clouds,dailyrainin,SoftwareType,DateUTC
2013-05-12 00:00:00,41.3,32.6,29.94,NW,316,6.0,9.0,71,0.00,RA,,0.00,WeatherDisplay:10.37,2013-05-12 05:00:00,
2013-05-12 00:05:00,41.3,32.2,29.94,NNW,328,6.0,12.0,70,0.00,RA,,0.00,WeatherDisplay:10.37,2013-05-12 05:05:00,
2013-05-12 00:10:00,41.2,32.2,29.94,NNW,329,5.0,12.0,70,0.00,CLR,,0.00,WeatherDisplay:10.37,2013-05-12 05:10:00,
2013-05-12 00:15:00,41.2,31.8,29.94,NNW,346,5.0,10.0,69,0.00,CLR,,0.00,WeatherDisplay:10.37,2013-05-12 05:15:00,
2013-05-12 00:20:00,41.1,31.3,29.94,NNW,331,3.0,10.0,68,0.00,CLR,,0.00,WeatherDisplay:10.37,2013-05-12 05:20:00,
2013-05-12 00:30:00,40.6,30.9,29.94,NW,321,5.0,10.0,68,0.00,CLR,,0.00,WeatherDisplay:10.37,2013-05-12 05:30:00,
2013-05-12 00:35:00,40.5,30.8,29.94,NW,324,5.0,12.0,68,0.00,CLR,,0.00,WeatherDisplay:10.37,2013-05-12 05:35:00,
2013-05-12 00:40:00,40.3,30.9,29.94,NNW,330,3.0,10.0,69,0.00,CLR,,0.00,WeatherDisplay:10.37,2013-05-12 05:40:00,
2013-05-12 00:45:00,40.1,30.7,29.94,NW,325,5.0,8.0,69,0.00,CLR,,0.00,WeatherDisplay:10.37,2013-05-12 05:45:00,
2013-05-12 00:50:00,40.1,30.4,29.94,NNW,330,6.0,14.0,68,0.00,CLR,,0.00,WeatherDisplay:10.37,2013-05-12 05:50:00,
2013-05-12 00:55:00,39.9,30.2,29.94,NNW,328,6.0,12.0,68,0.00,CLR,,0.00,WeatherDisplay:10.37,2013-05-12 05:55:00,
2013-05-12 01:00:00,39.9,30.5,29.94,NNW,331,6.0,12.0,69,0.00,CLR,,0.00,WeatherDisplay:10.37,2013-05-12 06:00:00,
2013-05-12 01:05:00,39.8,30.4,29.94,NNW,328,5.0,9.0,69,0.00,CLR,,0.00,WeatherDisplay:10.37,2013-05-12 06:05:00,
2013-05-12 01:10:00,39.5,30.2,29.94,NW,326,5.0,7.0,69,0.00,CLR,,0.00,WeatherDisplay:10.37,2013-05-12 06:10:00,
2013-05-12 01:15:00,39.6,29.9,29.94,NW,323,6.0,12.0,68,0.00,CLR,,0.00,WeatherDisplay:10.37,2013-05-12 06:15:00,
2013-05-12 01:20:00,39.6,30.2,29.94,NNW,330,3.0,9.0,69,0.00,CLR,,0.00,WeatherDisplay:10.37,2013-05-12 06:20:00,
2013-05-12 01:25:00,39.5,30.5,29.94,NNW,335,5.0,7.0,70,0.00,CLR,,0.00,WeatherDisplay:10.37,2013-05-12 06:25:00,
2013-05-12 01:30:00,39.5,30.5,29.94,NW,326,6.0,9.0,70,0.00,CLR,,0.00,WeatherDisplay:10.37,2013-05-12 06:30:00,
2013-05-12 01:35:00,39.6,29.9,29.94,NW,317,5.0,10.0,68,0.00,CLR,,0.00,WeatherDisplay:10.37,2013-05-12 06:35:00,
2013-05-12 01:40:00,39.5,29.8,29.94,NW,320,6.0,12.0,68,0.00,CLR,,0.00,WeatherDisplay:10.37,2013-05-12 06:40:00,
2013-05-12 01:45:00,39.5,30.2,29.94,NNW,330,6.0,10.0,69,0.00,CLR,,0.00,WeatherDisplay:10.37,2013-05-12 06:45:00,
2013-05-12 01:50:00,39.5,29.8,29.94,NNW,342,5.0,10.0,68,0.00,CLR,,0.00,WeatherDisplay:10.37,2013-05-12 06:50:00,
2013-05-12 01:55:00,39.5,29.4,29.94,NNW,336,3.0,12.0,67,0.00,CLR,,0.00,WeatherDisplay:10.37,2013-05-12 06:55:00,
2013-05-12 02:00:00,39.5,29.4,29.94,NNW,332,5.0,10.0,67,0.00,CLR,,0.00,WeatherDisplay:10.37,2013-05-12 07:00:00,
2013-05-12 02:05:00,39.5,29.8,29.94,NNW,332,3.0,12.0,68,0.00,CLR,,0.00,WeatherDisplay:10.37,2013-05-12 07:05:00,
2013-05-12 02:10:00,39.5,29.1,29.94,NNW,338,8.0,14.0,66,0.00,CLR,,0.00,WeatherDisplay:10.37,2013-05-12 07:10:00,
2013-05-12 02:15:00,39.5,27.9,29.94,NNW,337,8.0,17.0,63,0.00,CLR,,0.00,WeatherDisplay:10.37,2013-05-12 07:15:00,
2013-05-12 02:20:00,39.2,27.7,29.94,NNW,343,7.0,14.0,63,0.00,CLR,,0.00,WeatherDisplay:10.37,2013-05-12 07:20:00,
2013-05-12 02:25:00,39.2,28.0,29.94,North,349,8.0,14.0,64,0.00,CLR,,0.00,WeatherDisplay:10.37,2013-05-12 07:25:00,
2013-05-12 02:30:00,39.0,28.2,29.95,NNW,332,7.0,13.0,65,0.00,CLR,,0.00,WeatherDisplay:10.37,2013-05-12 07:30:00,
2013-05-12 02:35:00,38.9,28.1,29.95,NNW,340,5.0,13.0,65,0.00,CLR,,0.00,WeatherDisplay:10.37,2013-05-12 07:35:00,
2013-05-12 02:40:00,38.9,27.8,29.95,NNW,342,7.0,12.0,64,0.00,CLR,,0.00,WeatherDisplay:10.37,2013-05-12 07:40:00,
2013-05-12 02:45:00,38.9,27.7,29.95,North,350,6.0,13.0,64,0.00,CLR,,0.00,WeatherDisplay:10.37,2013-05-12 07:45:00,
2013-05-12 02:50:00,38.6,28.2,29.95,North,353,6.0,12.0,66,0.00,CLR,,0.00,WeatherDisplay:10.37,2013-05-12 07:50:00,
2013-05-12 02:55:00,38.5,27.7,29.95,NNW,341,6.0,12.0,65,0.00,CLR,,0.00,WeatherDisplay:10.37,2013-05-12 07:55:00,
2013-05-12 03:00:00,38.6,27.8,29.95,NNW,340,5.0,12.0,65,0.00,CLR,,0.00,WeatherDisplay:10.37,2013-05-12 08:00:00,
2013-05-12 03:05:00,38.5,27.8,29.95,NNW,329,5.0,12.0,65,0.00,CLR,,0.00,WeatherDisplay:10.37,2013-05-12 08:05:00,
2013-05-12 03:10:00,38.6,27.4,29.95,NW,326,6.0,14.0,64,0.00,CLR,,0.00,WeatherDisplay:10.37,2013-05-12 08:10:00,
2013-05-12 03:15:00,38.5,27.3,29.95,NNW,332,7.0,15.0,64,0.00,CLR,,0.00,WeatherDisplay:10.37,2013-05-12 08:15:00,
2013-05-12 03:20:00,38.3,26.4,29.95,NNW,329,7.0,13.0,62,0.00,CLR,,0.00,WeatherDisplay:10.37,2013-05-12 08:20:00,
2013-05-12 03:25:00,38.2,27.1,29.95,NNW,329,5.0,13.0,64,0.00,CLR,,0.00,WeatherDisplay:10.37,2013-05-12 08:25:00,
2013-05-12 03:30:00,38.0,26.9,29.95,NNW,331,7.0,14.0,64,0.00,CLR,,0.00,WeatherDisplay:10.37,2013-05-12 08:30:00,
2013-05-12 03:35:00,37.9,27.6,29.95,NNW,334,5.0,10.0,66,0.00,CLR,,0.00,WeatherDisplay:10.37,2013-05-12 08:35:00,
2013-05-12 03:40:00,37.8,27.1,29.95,NNW,343,5.0,10.0,65,0.00,CLR,,0.00,WeatherDisplay:10.37,2013-05-12 08:40:00,
2013-05-12 03:45:00,37.7,27.0,29.95,NNW,340,7.0,12.0,65,0.00,CLR,,0.00,WeatherDisplay:10.37,2013-05-12 08:45:00,
2013-05-12 03:50:00,37.8,27.1,29.95,NNW,334,5.0,12.0,65,0.00,CLR,,0.00,WeatherDisplay:10.37,2013-05-12 08:50:00,
2013-05-12 03:55:00,37.8,27.5,29.95,NNW,331,6.0,12.0,66,0.00,CLR,,0.00,WeatherDisplay:10.37,2013-05-12 08:55:00,
2013-05-12 04:00:00,37.8,27.8,29.95,NNW,328,5.0,9.0,67,0.00,CLR,,0.00,WeatherDisplay:10.37,2013-05-12 09:00:00,
2013-05-12 04:05:00,37.6,28.0,29.95,NNW,328,5.0,12.0,68,0.00,CLR,,0.00,WeatherDisplay:10.37,2013-05-12 09:05:00,
2013-05-12 04:15:00,37.2,26.9,29.96,NNW,341,6.0,12.0,66,0.00,CLR,,0.00,WeatherDisplay:10.37,2013-05-12 09:15:00,
2013-05-12 04:20:00,37.2,27.2,29.96,NNW,330,7.0,13.0,67,0.00,CLR,,0.00,WeatherDisplay:10.37,2013-05-12 09:20:00,
2013-05-12 04:25:00,37.0,26.7,29.96,NNW,334,6.0,12.0,66,0.00,CLR,,0.00,WeatherDisplay:10.37,2013-05-12 09:25:00,
2013-05-12 04:30:00,37.0,26.3,29.96,NNW,335,7.0,13.0,65,0.00,CLR,,0.00,WeatherDisplay:10.37,2013-05-12 09:30:00,
2013-05-12 04:35:00,36.8,26.5,29.96,NNW,337,5.0,18.0,66,0.00,CLR,,0.00,WeatherDisplay:10.37,2013-05-12 09:35:00,
2013-05-12 04:40:00,36.6,26.7,29.96,NNW,344,3.0,9.0,67,0.00,CLR,,0.00,WeatherDisplay:10.37,2013-05-12 09:40:00,
2013-05-12 04:45:00,36.5,26.6,29.96,NNW,343,5.0,12.0,67,0.00,CLR,,0.00,WeatherDisplay:10.37,2013-05-12 09:45:00,
2013-05-12 04:50:00,36.5,26.9,29.96,NNW,341,3.0,8.0,68,0.00,CLR,,0.00,WeatherDisplay:10.37,2013-05-12 09:50:00,
2013-05-12 04:55:00,36.5,26.6,29.96,NNW,338,3.0,8.0,67,0.00,CLR,,0.00,WeatherDisplay:10.37,2013-05-12 09:55:00,
2013-05-12 05:00:00,36.5,25.8,29.96,NNW,330,5.0,12.0,65,0.00,CLR,,0.00,WeatherDisplay:10.37,2013-05-12 10:00:00,
2013-05-12 05:10:00,36.2,26.3,29.96,NW,325,5.0,12.0,67,0.00,CLR,,0.00,WeatherDisplay:10.37,2013-05-12 10:10:00,
2013-05-12 05:15:00,36.3,25.7,29.96,NW,322,5.0,10.0,65,0.00,CLR,,0.00,WeatherDisplay:10.37,2013-05-12 10:15:00,
2013-05-12 05:20:00,36.3,25.3,29.96,NW,324,7.0,13.0,64,0.00,CLR,,0.00,WeatherDisplay:10.37,2013-05-12 10:20:00,
2013-05-12 05:25:00,36.2,25.6,29.96,NNW,339,5.0,14.0,65,0.00,CLR,,0.00,WeatherDisplay:10.37,2013-05-12 10:25:00,
2013-05-12 05:30:00,36.2,25.5,29.97,NNW,344,3.0,13.0,65,0.00,CLR,,0.00,WeatherDisplay:10.37,2013-05-12 10:30:00,
2013-05-12 05:35:00,36.0,26.1,29.97,NNW,330,5.0,16.0,67,0.00,CLR,,0.00,WeatherDisplay:10.37,2013-05-12 10:35:00,
2013-05-12 05:40:00,36.2,26.3,29.97,NW,315,5.0,10.0,67,0.00,CLR,,0.00,WeatherDisplay:10.37,2013-05-12 10:40:00,
2013-05-12 05:45:00,35.9,26.0,29.97,NNW,333,7.0,15.0,67,0.00,CLR,,0.00,WeatherDisplay:10.37,2013-05-12 10:45:00,
2013-05-12 05:50:00,35.8,25.5,29.97,NNW,342,6.0,17.0,66,0.00,CLR,,0.00,WeatherDisplay:10.37,2013-05-12 10:50:00,
2013-05-12 05:55:00,35.8,25.9,29.97,NNW,341,10.0,20.0,67,0.00,CLR,,0.00,WeatherDisplay:10.37,2013-05-12 10:55:00,
2013-05-12 06:00:00,35.8,25.5,29.97,NNW,336,6.0,16.0,66,0.00,CLR,,0.00,WeatherDisplay:10.37,2013-05-12 11:00:00,
2013-05-12 06:05:00,35.8,25.5,29.97,NNW,344,7.0,15.0,66,0.00,CLR,,0.00,WeatherDisplay:10.37,2013-05-12 11:05:00,
2013-05-12 06:10:00,35.8,25.9,29.97,North,349,5.0,13.0,67,0.00,CLR,,0.00,WeatherDisplay:10.37,2013-05-12 11:10:00,
2013-05-12 06:15:00,35.8,25.9,29.98,North,349,5.0,12.0,67,0.00,CLR,,0.00,WeatherDisplay:10.37,2013-05-12 11:15:00,
2013-05-12 06:20:00,35.9,26.4,29.98,NNW,347,3.0,12.0,68,0.00,CLR,,0.00,WeatherDisplay:10.37,2013-05-12 11:20:00,
2013-05-12 06:25:00,35.9,26.4,29.98,NNW,334,5.0,12.0,68,0.00,CLR,,0.00,WeatherDisplay:10.37,2013-05-12 11:25:00,
2013-05-12 06:30:00,36.2,26.6,29.98,NNW,331,3.0,7.0,68,0.00,CLR,,0.00,WeatherDisplay:10.37,2013-05-12 11:30:00,
2013-05-12 06:35:00,36.2,26.3,29.98,NNW,346,7.0,14.0,67,0.00,CLR,,0.00,WeatherDisplay:10.37,2013-05-12 11:35:00,
2013-05-12 06:40:00,36.2,25.9,29.98,NNW,342,7.0,17.0,66,0.00,CLR,,0.00,WeatherDisplay:10.37,2013-05-12 11:40:00,
2013-05-12 06:45:00,36.2,25.6,29.98,North,353,9.0,21.0,65,0.00,CLR,,0.00,WeatherDisplay:10.37,2013-05-12 11:45:00,
2013-05-12 06:50:00,36.2,25.6,29.98,North,352,9.0,20.0,65,0.00,CLR,,0.00,WeatherDisplay:10.37,2013-05-12 11:50:00,
2013-05-12 06:55:00,36.3,26.4,29.98,North,349,8.0,16.0,67,0.00,CLR,,0.00,WeatherDisplay:10.37,2013-05-12 11:55:00,
2013-05-12 07:00:00,36.5,26.2,29.99,NNW,346,6.0,14.0,66,0.00,CLR,,0.00,WeatherDisplay:10.37,2013-05-12 12:00:00,
2013-05-12 07:05:00,36.5,26.2,29.99,NNW,339,6.0,16.0,66,0.00,CLR,,0.00,WeatherDisplay:10.37,2013-05-12 12:05:00,
2013-05-12 07:10:00,36.5,26.2,29.99,NNW,341,8.0,14.0,66,0.00,CLR,,0.00,WeatherDisplay:10.37,2013-05-12 12:10:00,
2013-05-12 07:15:00,36.6,26.3,29.99,NNW,339,7.0,15.0,66,0.00,CLR,,0.00,WeatherDisplay:10.37,2013-05-12 12:15:00,
2013-05-12 07:20:00,36.8,26.1,29.99,NNW,336,7.0,15.0,65,0.00,CLR,,0.00,WeatherDisplay:10.37,2013-05-12 12:20:00,
2013-05-12 07:25:00,37.0,27.1,29.99,NNW,339,5.0,12.0,67,0.00,CLR,,0.00,WeatherDisplay:10.37,2013-05-12 12:25:00,
2013-05-12 07:30:00,37.0,25.9,29.99,NNW,347,8.0,15.0,64,0.00,CLR,,0.00,WeatherDisplay:10.37,2013-05-12 12:30:00,
2013-05-12 07:35:00,37.4,27.1,29.99,NNW,338,5.0,9.0,66,0.00,CLR,,0.00,WeatherDisplay:10.37,2013-05-12 12:35:00,
2013-05-12 07:40:00,37.3,26.2,29.99,NW,325,7.0,13.0,64,0.00,CLR,,0.00,WeatherDisplay:10.37,2013-05-12 12:40:00,
2013-05-12 07:45:00,37.3,26.2,29.99,NW,316,7.0,13.0,64,0.00,CLR,,0.00,WeatherDisplay:10.37,2013-05-12 12:45:00,
2013-05-12 07:50:00,37.6,27.2,29.99,NW,322,6.0,15.0,66,0.00,CLR,,0.00,WeatherDisplay:10.37,2013-05-12 12:50:00,
2013-05-12 07:55:00,37.6,25.7,29.99,NW,325,7.0,12.0,62,0.00,CLR,,0.00,WeatherDisplay:10.37,2013-05-12 12:55:00,
2013-05-12 08:00:00,37.7,26.2,29.99,NNW,336,6.0,13.0,63,0.00,CLR,,0.00,WeatherDisplay:10.37,2013-05-12 13:00:00,
2013-05-12 08:05:00,38.2,27.1,29.99,NNW,338,5.0,18.0,64,0.00,CLR,,0.00,WeatherDisplay:10.37,2013-05-12 13:05:00,
2013-05-12 08:10:00,38.3,26.4,29.99,NNW,341,5.0,15.0,62,0.00,CLR,,0.00,WeatherDisplay:10.37,2013-05-12 13:10:00,
2013-05-12 08:15:00,38.3,26.4,30.00,NNW,331,6.0,15.0,62,0.00,CLR,,0.00,WeatherDisplay:10.37,2013-05-12 13:15:00,
2013-05-12 08:20:00,38.6,26.3,30.00,NNW,327,8.0,14.0,61,0.00,CLR,,0.00,WeatherDisplay:10.37,2013-05-12 13:20:00,
2013-05-12 08:25:00,38.6,25.9,30.00,NNW,348,8.0,18.0,60,0.00,CLR,,0.00,WeatherDisplay:10.37,2013-05-12 13:25:00,
2013-05-12 08:30:00,39.1,27.9,30.01,North,356,3.0,14.0,64,0.00,CLR,,0.00,WeatherDisplay:10.37,2013-05-12 13:30:00,
2013-05-12 08:35:00,39.1,26.4,30.01,NNW,344,7.0,12.0,60,0.00,CLR,,0.00,WeatherDisplay:10.37,2013-05-12 13:35:00,
2013-05-12 08:40:00,39.0,26.7,30.01,NNW,327,5.0,15.0,61,0.00,CLR,,0.00,WeatherDisplay:10.37,2013-05-12 13:40:00,
2013-05-12 08:45:00,39.1,26.8,30.01,NNW,330,5.0,15.0,61,0.00,CLR,,0.00,WeatherDisplay:10.37,2013-05-12 13:45:00,
2013-05-12 08:50:00,39.3,26.2,30.01,NNW,327,5.0,10.0,59,0.00,CLR,,0.00,WeatherDisplay:10.37,2013-05-12 13:50:00,
2013-05-12 08:55:00,39.5,27.2,30.01,NNW,330,6.0,12.0,61,0.00,CLR,,0.00,WeatherDisplay:10.37,2013-05-12 13:55:00,
2013-05-12 09:00:00,39.5,25.5,30.01,NW,317,5.0,8.0,57,0.00,CLR,,0.00,WeatherDisplay:10.37,2013-05-12 14:00:00,
2013-05-12 09:05:00,39.6,26.4,30.01,NNW,328,9.0,17.0,59,0.00,CLR,,0.00,WeatherDisplay:10.37,2013-05-12 14:05:00,
2013-05-12 09:10:00,39.5,25.5,30.01,NW,325,6.0,12.0,57,0.00,CLR,,0.00,WeatherDisplay:10.37,2013-05-12 14:10:00,
2013-05-12 09:15:00,39.9,27.5,30.01,NNW,348,7.0,15.0,61,0.00,CLR,,0.00,WeatherDisplay:10.37,2013-05-12 14:15:00,
2013-05-12 09:20:00,39.9,25.9,30.01,NNW,335,5.0,18.0,57,0.00,CLR,,0.00,WeatherDisplay:10.37,2013-05-12 14:20:00,
2013-05-12 09:25:00,39.5,25.5,30.01,NW,313,5.0,14.0,57,0.00,CLR,,0.00,WeatherDisplay:10.37,2013-05-12 14:25:00,
2013-05-12 09:30:00,39.7,26.1,30.01,NW,304,5.0,12.0,58,0.00,CLR,,0.00,WeatherDisplay:10.37,2013-05-12 14:30:00,
2013-05-12 09:35:00,40.3,25.8,30.01,NW,311,6.0,13.0,56,0.00,CLR,,0.00,WeatherDisplay:10.37,2013-05-12 14:35:00,
2013-05-12 09:40:00,40.8,26.7,30.01,NNW,334,6.0,13.0,57,0.00,CLR,,0.00,WeatherDisplay:10.37,2013-05-12 14:40:00,
2013-05-12 09:45:00,40.8,26.3,30.01,NNW,342,5.0,12.0,56,0.00,CLR,,0.00,WeatherDisplay:10.37,2013-05-12 14:45:00,
2013-05-12 09:50:00,41.5,27.0,30.01,NW,315,6.0,10.0,56,0.00,CLR,,0.00,WeatherDisplay:10.37,2013-05-12 14:50:00,
2013-05-12 09:55:00,41.3,25.9,30.01,NNW,334,8.0,18.0,54,0.00,CLR,,0.00,WeatherDisplay:10.37,2013-05-12 14:55:00,
2013-05-12 10:00:00,41.5,26.5,30.01,NNW,331,6.0,12.0,55,0.00,CLR,,0.00,WeatherDisplay:10.37,2013-05-12 15:00:00,
2013-05-12 10:05:00,41.1,27.4,30.01,WNW,301,5.0,8.0,58,0.00,CLR,,0.00,WeatherDisplay:10.37,2013-05-12 15:05:00,
2013-05-12 10:10:00,41.5,27.8,30.01,NW,310,5.0,12.0,58,0.00,CLR,,0.00,WeatherDisplay:10.37,2013-05-12 15:10:00,
2013-05-12 10:15:00,41.5,27.4,30.01,NW,312,7.0,13.0,57,0.00,CLR,,0.00,WeatherDisplay:10.37,2013-05-12 15:15:00,
2013-05-12 10:20:00,40.9,26.4,30.01,NW,320,6.0,14.0,56,0.00,CLR,,0.00,WeatherDisplay:10.37,2013-05-12 15:20:00,
2013-05-12 10:25:00,41.5,26.5,30.01,NW,317,8.0,15.0,55,0.00,CLR,,0.00,WeatherDisplay:10.37,2013-05-12 15:25:00,
2013-05-12 10:30:00,41.6,27.0,30.02,NW,324,7.0,15.0,56,0.00,CLR,,0.00,WeatherDisplay:10.37,2013-05-12 15:30:00,
2013-05-12 10:35:00,41.9,28.2,30.02,NNW,333,5.0,12.0,58,0.00,CLR,,0.00,WeatherDisplay:10.37,2013-05-12 15:35:00,
2013-05-12 10:40:00,42.2,26.3,30.02,NW,321,8.0,17.0,53,0.00,CLR,,0.00,WeatherDisplay:10.37,2013-05-12 15:40:00,
2013-05-12 10:45:00,42.1,27.5,30.02,NW,326,6.0,14.0,56,0.00,CLR,,0.00,WeatherDisplay:10.37,2013-05-12 15:45:00,
2013-05-12 10:55:00,42.1,26.2,30.02,NNW,339,8.0,15.0,53,0.00,CLR,,0.00,WeatherDisplay:10.37,2013-05-12 15:55:00,
2013-05-12 11:00:00,42.6,27.5,30.02,NNW,330,5.0,13.0,55,0.00,CLR,,0.00,WeatherDisplay:10.37,2013-05-12 16:00:00,
2013-05-12 11:05:00,42.6,27.1,30.02,WNW,302,3.0,8.0,54,0.00,CLR,,0.00,WeatherDisplay:10.37,2013-05-12 16:05:00,
2013-05-12 11:10:00,43.1,28.0,30.02,NW,318,7.0,15.0,55,0.00,CLR,,0.00,WeatherDisplay:10.37,2013-05-12 16:10:00,
2013-05-12 11:15:00,43.1,26.2,30.02,NNW,334,6.0,14.0,51,0.00,CLR,,0.00,WeatherDisplay:10.37,2013-05-12 16:15:00,
2013-05-12 11:20:00,43.1,27.5,30.02,NNW,337,7.0,13.0,54,0.00,CLR,,0.00,WeatherDisplay:10.37,2013-05-12 16:20:00,
2013-05-12 11:25:00,43.2,26.3,30.02,NNW,337,6.0,13.0,51,0.00,CLR,,0.00,WeatherDisplay:10.37,2013-05-12 16:25:00,
2013-05-12 11:30:00,43.6,28.5,30.02,NNW,332,7.0,14.0,55,0.00,CLR,,0.00,WeatherDisplay:10.37,2013-05-12 16:30:00,
2013-05-12 11:35:00,43.5,26.5,30.02,NNW,339,5.0,12.0,51,0.00,CLR,,0.00,WeatherDisplay:10.37,2013-05-12 16:35:00,
2013-05-12 11:40:00,43.6,28.5,30.02,NNW,348,6.0,17.0,55,0.00,CLR,,0.00,WeatherDisplay:10.37,2013-05-12 16:40:00,
2013-05-12 11:45:00,44.0,27.9,30.01,NNW,346,6.0,12.0,53,0.00,CLR,,0.00,WeatherDisplay:10.37,2013-05-12 16:45:00,
2013-05-12 11:50:00,44.0,27.9,30.01,NNW,327,5.0,12.0,53,0.00,CLR,,0.00,WeatherDisplay:10.37,2013-05-12 16:50:00,
2013-05-12 11:55:00,44.1,26.2,30.01,NNW,332,9.0,14.0,49,0.00,CLR,,0.00,WeatherDisplay:10.37,2013-05-12 16:55:00,
2013-05-12 12:00:00,44.6,27.1,30.01,NNW,333,5.0,10.0,50,0.00,CLR,,0.00,WeatherDisplay:10.37,2013-05-12 17:00:00,
2013-05-12 12:05:00,44.9,27.4,30.01,NW,325,3.0,10.0,50,0.00,CLR,,0.00,WeatherDisplay:10.37,2013-05-12 17:05:00,
2013-05-12 12:10:00,44.5,27.0,30.01,NW,310,6.0,12.0,50,0.00,CLR,,0.00,WeatherDisplay:10.37,2013-05-12 17:10:00,
2013-05-12 12:15:00,45.0,26.9,30.01,NW,326,7.0,12.0,49,0.00,CLR,,0.00,WeatherDisplay:10.37,2013-05-12 17:15:00,
2013-05-12 12:20:00,44.3,28.2,30.01,NNW,340,2.0,8.0,53,0.00,CLR,,0.00,WeatherDisplay:10.37,2013-05-12 17:20:00,
2013-05-12 12:25:00,44.8,27.3,30.01,NNW,342,6.0,12.0,50,0.00,CLR,,0.00,WeatherDisplay:10.37,2013-05-12 17:25:00,
2013-05-12 12:30:00,45.2,26.7,30.01,NNW,328,3.0,12.0,48,0.00,CLR,,0.00,WeatherDisplay:10.37,2013-05-12 17:30:00,
2013-05-12 12:35:00,45.2,27.2,30.01,NW,317,6.0,12.0,49,0.00,CLR,,0.00,WeatherDisplay:10.37,2013-05-12 17:35:00,
2013-05-12 12:40:00,45.4,27.4,30.01,NW,310,5.0,9.0,49,0.00,CLR,,0.00,WeatherDisplay:10.37,2013-05-12 17:40:00,
2013-05-12 12:45:00,45.7,26.6,30.01,WNW,299,6.0,8.0,47,0.00,CLR,,0.00,WeatherDisplay:10.37,2013-05-12 17:45:00,
2013-05-12 12:50:00,46.1,26.4,30.01,NW,314,5.0,9.0,46,0.00,CLR,,0.00,WeatherDisplay:10.37,2013-05-12 17:50:00,
2013-05-12 12:55:00,46.2,26.5,30.01,NW,325,6.0,10.0,46,0.00,CLR,,0.00,WeatherDisplay:10.37,2013-05-12 17:55:00,
2013-05-12 13:00:00,46.5,27.3,30.01,NW,319,6.0,13.0,47,0.00,CLR,,0.00,WeatherDisplay:10.37,2013-05-12 18:00:00,
2013-05-12 13:05:00,46.7,25.9,30.01,NW,304,5.0,8.0,44,0.00,CLR,,0.00,WeatherDisplay:10.37,2013-05-12 18:05:00,
2013-05-12 13:10:00,46.8,26.6,30.01,NW,305,5.0,12.0,45,0.00,CLR,,0.00,WeatherDisplay:10.37,2013-05-12 18:10:00,
2013-05-12 13:15:00,46.5,25.7,30.01,WNW,297,5.0,8.0,44,0.00,CLR,,0.00,WeatherDisplay:10.37,2013-05-12 18:15:00,
2013-05-12 13:20:00,47.0,27.8,30.01,WNW,290,3.0,6.0,47,0.00,CLR,,0.00,WeatherDisplay:10.37,2013-05-12 18:20:00,
2013-05-12 13:25:00,47.4,26.0,30.01,NW,306,5.0,10.0,43,0.00,CLR,,0.00,WeatherDisplay:10.37,2013-05-12 18:25:00,
2013-05-12 13:35:00,48.0,27.1,30.00,NW,310,3.0,12.0,44,0.00,CLR,,0.00,WeatherDisplay:10.37,2013-05-12 18:35:00,
2013-05-12 13:40:00,47.7,26.8,30.00,NW,306,3.0,9.0,44,0.00,CLR,,0.00,WeatherDisplay:10.37,2013-05-12 18:40:00,
2013-05-12 13:45:00,48.3,25.0,30.00,NW,318,6.0,12.0,40,0.00,CLR,,0.00,WeatherDisplay:10.37,2013-05-12 18:45:00,
2013-05-12 13:55:00,48.4,25.2,30.00,WNW,303,5.0,8.0,40,0.00,CLR,,0.00,WeatherDisplay:10.37,2013-05-12 18:55:00,
2013-05-12 14:00:00,48.0,26.5,30.00,WNW,301,2.0,7.0,43,0.00,CLR,,0.00,WeatherDisplay:10.37,2013-05-12 19:00:00,
2013-05-12 14:05:00,48.6,29.3,30.00,WNW,301,5.0,8.0,47,0.00,CLR,,0.00,WeatherDisplay:10.37,2013-05-12 19:05:00,
2013-05-12 14:10:00,48.1,26.1,30.00,NW,318,6.0,13.0,42,0.00,CLR,,0.00,WeatherDisplay:10.37,2013-05-12 19:10:00,
2013-05-12 14:15:00,48.2,26.7,29.99,NW,315,5.0,9.0,43,0.00,CLR,,0.00,WeatherDisplay:10.37,2013-05-12 19:15:00,
2013-05-12 14:20:00,49.4,27.2,29.99,WNW,290,3.0,7.0,42,0.00,CLR,,0.00,WeatherDisplay:10.37,2013-05-12 19:20:00,
2013-05-12 14:25:00,48.9,25.6,29.99,NW,318,6.0,12.0,40,0.00,CLR,,0.00,WeatherDisplay:10.37,2013-05-12 19:25:00,
2013-05-12 14:30:00,49.2,24.0,29.99,NW,324,6.0,9.0,37,0.00,CLR,,0.00,WeatherDisplay:10.37,2013-05-12 19:30:00,
2013-05-12 14:35:00,49.1,26.9,29.99,NNW,337,5.0,9.0,42,0.00,CLR,,0.00,WeatherDisplay:10.37,2013-05-12 19:35:00,
2013-05-12 14:40:00,48.6,25.9,29.99,NNW,337,3.0,12.0,41,0.00,CLR,,0.00,WeatherDisplay:10.37,2013-05-12 19:40:00,
2013-05-12 14:45:00,48.9,25.0,29.99,NW,306,2.0,8.0,39,0.00,CLR,,0.00,WeatherDisplay:10.37,2013-05-12 19:45:00,
2013-05-12 14:50:00,49.1,27.0,29.99,NW,309,5.0,9.0,42,0.00,CLR,,0.00,WeatherDisplay:10.37,2013-05-12 19:50:00,
2013-05-12 14:55:00,49.5,25.5,29.99,NW,310,5.0,12.0,39,0.00,CLR,,0.00,WeatherDisplay:10.37,2013-05-12 19:55:00,
2013-05-12 15:00:00,49.6,25.6,29.98,NW,304,3.0,8.0,39,0.00,CLR,,0.00,WeatherDisplay:10.37,2013-05-12 20:00:00,
2013-05-12 15:05:00,49.1,25.2,29.98,WNW,302,5.0,7.0,39,0.00,CLR,,0.00,WeatherDisplay:10.37,2013-05-12 20:05:00,
2013-05-12 15:10:00,49.8,26.4,29.98,NW,304,5.0,9.0,40,0.00,CLR,,0.00,WeatherDisplay:10.37,2013-05-12 20:10:00,
2013-05-12 15:15:00,50.5,28.2,29.98,WNW,296,6.0,9.0,42,0.00,CLR,,0.00,WeatherDisplay:10.37,2013-05-12 20:15:00,
2013-05-12 15:20:00,50.4,28.7,29.98,WNW,294,2.0,9.0,43,0.00,CLR,,0.00,WeatherDisplay:10.37,2013-05-12 20:20:00,
2013-05-12 15:25:00,50.8,26.7,29.98,WNW,284,2.0,6.0,39,0.00,CLR,,0.00,WeatherDisplay:10.37,2013-05-12 20:25:00,
2013-05-12 15:30:00,50.8,25.4,29.98,WNW,293,3.0,7.0,37,0.00,CLR,,0.00,WeatherDisplay:10.37,2013-05-12 20:30:00,
2013-05-12 15:35:00,51.1,26.3,29.98,NW,308,3.0,7.0,38,0.00,CLR,,0.00,WeatherDisplay:10.37,2013-05-12 20:35:00,
2013-05-12 15:40:00,50.8,25.4,29.98,NW,305,5.0,12.0,37,0.00,CLR,,0.00,WeatherDisplay:10.37,2013-05-12 20:40:00,
2013-05-12 15:45:00,51.0,26.2,29.98,WNW,295,3.0,7.0,38,0.00,CLR,,0.00,WeatherDisplay:10.37,2013-05-12 20:45:00,
2013-05-12 15:50:00,51.3,26.5,29.98,WNW,284,2.0,9.0,38,0.00,CLR,,0.00,WeatherDisplay:10.37,2013-05-12 20:50:00,
2013-05-12 15:55:00,51.1,25.0,29.98,NNW,328,5.0,8.0,36,0.00,CLR,,0.00,WeatherDisplay:10.37,2013-05-12 20:55:00,
2013-05-12 16:00:00,51.0,25.0,29.97,NNW,339,6.0,9.0,36,0.00,CLR,,0.00,WeatherDisplay:10.37,2013-05-12 21:00:00,
2013-05-12 16:05:00,51.4,25.3,29.97,NNW,348,6.0,12.0,36,0.00,CLR,,0.00,WeatherDisplay:10.37,2013-05-12 21:05:00,
2013-05-12 16:10:00,51.4,23.9,29.97,NNW,335,6.0,9.0,34,0.00,CLR,,0.00,WeatherDisplay:10.37,2013-05-12 21:10:00,
2013-05-12 16:15:00,51.4,23.9,29.97,NW,322,3.0,7.0,34,0.00,CLR,,0.00,WeatherDisplay:10.37,2013-05-12 21:15:00,
2013-05-12 16:20:00,51.6,27.4,29.97,NW,316,6.0,10.0,39,0.00,CLR,,0.00,WeatherDisplay:10.37,2013-05-12 21:20:00,
2013-05-12 16:25:00,51.9,25.1,29.97,NW,310,5.0,7.0,35,0.00,CLR,,0.00,WeatherDisplay:10.37,2013-05-12 21:25:00,
2013-05-12 16:30:00,51.3,22.4,29.97,WNW,293,1.0,8.0,32,0.00,CLR,,0.00,WeatherDisplay:10.37,2013-05-12 21:30:00,
2013-05-12 16:35:00,51.5,25.4,29.97,WNW,300,1.0,7.0,36,0.00,CLR,,0.00,WeatherDisplay:10.37,2013-05-12 21:35:00,
2013-05-12 16:40:00,51.9,25.1,29.97,NW,308,5.0,9.0,35,0.00,CLR,,0.00,WeatherDisplay:10.37,2013-05-12 21:40:00,
2013-05-12 16:45:00,51.7,24.9,29.97,NW,310,3.0,7.0,35,0.00,CLR,,0.00,WeatherDisplay:10.37,2013-05-12 21:45:00,
2013-05-12 16:50:00,52.2,24.6,29.97,NW,305,2.0,6.0,34,0.00,CLR,,0.00,WeatherDisplay:10.37,2013-05-12 21:50:00,
2013-05-12 16:55:00,52.0,25.2,29.97,WNW,284,1.0,5.0,35,0.00,CLR,,0.00,WeatherDisplay:10.37,2013-05-12 21:55:00,
2013-05-12 17:00:00,52.0,25.8,29.96,WNW,290,3.0,7.0,36,0.00,CLR,,0.00,WeatherDisplay:10.37,2013-05-12 22:00:00,
2013-05-12 17:05:00,52.0,23.0,29.96,NW,322,5.0,10.0,32,0.00,CLR,,0.00,WeatherDisplay:10.37,2013-05-12 22:05:00,
2013-05-12 17:10:00,52.0,23.7,29.96,NW,320,3.0,13.0,33,0.00,CLR,,0.00,WeatherDisplay:10.37,2013-05-12 22:10:00,
2013-05-12 17:15:00,51.7,24.2,29.97,NW,310,6.0,14.0,34,0.00,CLR,,0.00,WeatherDisplay:10.37,2013-05-12 22:15:00,
2013-05-12 17:20:00,51.4,23.2,29.97,NW,323,6.0,9.0,33,0.00,CLR,,0.00,WeatherDisplay:10.37,2013-05-12 22:20:00,
2013-05-12 17:25:00,51.4,21.7,29.97,North,350,6.0,12.0,31,0.00,CLR,,0.00,WeatherDisplay:10.37,2013-05-12 22:25:00,
2013-05-12 17:30:00,51.9,23.7,29.97,NNW,345,3.0,12.0,33,0.00,CLR,,0.00,WeatherDisplay:10.37,2013-05-12 22:30:00,
2013-05-12 17:35:00,52.1,22.4,29.97,NNW,340,7.0,12.0,31,0.00,CLR,,0.00,WeatherDisplay:10.37,2013-05-12 22:35:00,
2013-05-12 17:40:00,52.5,22.7,29.97,NW,316,5.0,8.0,31,0.00,CLR,,0.00,WeatherDisplay:10.37,2013-05-12 22:40:00,
2013-05-12 17:45:00,52.3,22.5,29.96,NW,316,3.0,12.0,31,0.00,CLR,,0.00,WeatherDisplay:10.37,2013-05-12 22:45:00,
2013-05-12 17:50:00,52.3,24.0,29.96,NNW,334,3.0,12.0,33,0.00,CLR,,0.00,WeatherDisplay:10.37,2013-05-12 22:50:00,
2013-05-12 17:55:00,52.2,23.2,29.96,NNW,346,5.0,8.0,32,0.00,CLR,,0.00,WeatherDisplay:10.37,2013-05-12 22:55:00,
2013-05-12 18:00:00,52.0,23.8,29.96,North,349,5.0,13.0,33,0.00,CLR,,0.00,WeatherDisplay:10.37,2013-05-12 23:00:00,
2013-05-12 18:05:00,52.2,22.4,29.96,NNW,331,5.0,8.0,31,0.00,CLR,,0.00,WeatherDisplay:10.37,2013-05-12 23:05:00,
2013-05-12 18:10:00,52.0,23.8,29.96,NW,326,3.0,6.0,33,0.00,CLR,,0.00,WeatherDisplay:10.37,2013-05-12 23:10:00,
2013-05-12 18:15:00,52.0,25.2,29.96,NNW,337,3.0,9.0,35,0.00,CLR,,0.00,WeatherDisplay:10.37,2013-05-12 23:15:00,
2013-05-12 18:20:00,51.9,24.4,29.96,North,350,2.0,7.0,34,0.00,CLR,,0.00,WeatherDisplay:10.37,2013-05-12 23:20:00,
2013-05-12 18:25:00,51.7,23.5,29.96,NNW,333,6.0,10.0,33,0.00,CLR,,0.00,WeatherDisplay:10.37,2013-05-12 23:25:00,
2013-05-12 18:30:00,51.7,22.8,29.96,NNW,343,6.0,14.0,32,0.00,CLR,,0.00,WeatherDisplay:10.37,2013-05-12 23:30:00,
2013-05-12 18:35:00,52.0,23.7,29.96,North,355,5.0,12.0,33,0.00,CLR,,0.00,WeatherDisplay:10.37,2013-05-12 23:35:00,
2013-05-12 18:40:00,51.7,24.2,29.96,North,359,6.0,10.0,34,0.00,CLR,,0.00,WeatherDisplay:10.37,2013-05-12 23:40:00,
2013-05-12 18:45:00,51.5,22.6,29.96,North,353,5.0,12.0,32,0.00,CLR,,0.00,WeatherDisplay:10.37,2013-05-12 23:45:00,
2013-05-12 18:50:00,51.3,22.4,29.96,NNW,348,3.0,13.0,32,0.00,CLR,,0.00,WeatherDisplay:10.37,2013-05-12 23:50:00,
2013-05-12 18:55:00,51.6,21.9,29.96,NNW,344,7.0,13.0,31,0.00,CLR,,0.00,WeatherDisplay:10.37,2013-05-12 23:55:00,
2013-05-12 19:00:00,51.7,22.8,29.96,North,350,5.0,9.0,32,0.00,CLR,,0.00,WeatherDisplay:10.37,2013-05-13 00:00:00,
2013-05-12 19:05:00,51.5,24.0,29.96,NNW,346,2.0,13.0,34,0.00,CLR,,0.00,WeatherDisplay:10.37,2013-05-13 00:05:00,
2013-05-12 19:10:00,51.4,22.5,29.96,North,352,6.0,13.0,32,0.00,CLR,,0.00,WeatherDisplay:10.37,2013-05-13 00:10:00,
2013-05-12 19:15:00,51.4,23.9,29.96,North,358,8.0,15.0,34,0.00,CLR,,0.00,WeatherDisplay:10.37,2013-05-13 00:15:00,
2013-05-12 19:20:00,51.1,23.7,29.96,North,360,3.0,12.0,34,0.00,CLR,,0.00,WeatherDisplay:10.37,2013-05-13 00:20:00,
2013-05-12 19:25:00,50.8,24.1,29.96,North,2,8.0,12.0,35,0.00,CLR,,0.00,WeatherDisplay:10.37,2013-05-13 00:25:00,
2013-05-12 19:30:00,50.7,26.6,29.96,North,1,2.0,7.0,39,0.00,CLR,,0.00,WeatherDisplay:10.37,2013-05-13 00:30:00,
2013-05-12 19:35:00,50.5,25.8,29.96,North,355,5.0,10.0,38,0.00,CLR,,0.00,WeatherDisplay:10.37,2013-05-13 00:35:00,
2013-05-12 19:40:00,50.5,25.2,29.96,North,352,5.0,9.0,37,0.00,CLR,,0.00,WeatherDisplay:10.37,2013-05-13 00:40:00,
2013-05-12 19:45:00,50.4,26.3,29.97,North,359,3.0,8.0,39,0.00,CLR,,0.00,WeatherDisplay:10.37,2013-05-13 00:45:00,
2013-05-12 19:50:00,50.1,28.4,29.97,NNE,12,3.0,7.0,43,0.00,CLR,,0.00,WeatherDisplay:10.37,2013-05-13 00:50:00,
2013-05-12 19:55:00,49.6,27.4,29.97,NNE,13,3.0,7.0,42,0.00,CLR,,0.00,WeatherDisplay:10.37,2013-05-13 00:55:00,
2013-05-12 20:00:00,49.3,26.6,29.97,North,10,5.0,8.0,41,0.00,CLR,,0.00,WeatherDisplay:10.37,2013-05-13 01:00:00,
2013-05-12 20:05:00,48.9,25.6,29.97,North,8,5.0,9.0,40,0.00,CLR,,0.00,WeatherDisplay:10.37,2013-05-13 01:05:00,
2013-05-12 20:10:00,48.8,26.1,29.97,North,8,2.0,6.0,41,0.00,CLR,,0.00,WeatherDisplay:10.37,2013-05-13 01:10:00,
2013-05-12 20:15:00,48.4,26.9,29.97,North,7,2.0,6.0,43,0.00,CLR,,0.00,WeatherDisplay:10.37,2013-05-13 01:15:00,
2013-05-12 20:20:00,48.0,26.5,29.97,North,9,3.0,5.0,43,0.00,CLR,,0.00,WeatherDisplay:10.37,2013-05-13 01:20:00,
2013-05-12 20:25:00,47.7,26.3,29.97,North,7,2.0,4.0,43,0.00,CLR,,0.00,WeatherDisplay:10.37,2013-05-13 01:25:00,
2013-05-12 20:30:00,47.6,26.7,29.98,North,2,2.0,6.0,44,0.00,CLR,,0.00,WeatherDisplay:10.37,2013-05-13 01:30:00,
2013-05-12 20:35:00,47.4,26.6,29.98,North,360,2.0,4.0,44,0.00,CLR,,0.00,WeatherDisplay:10.37,2013-05-13 01:35:00,
2013-05-12 20:40:00,47.2,26.4,29.98,North,357,2.0,4.0,44,0.00,CLR,,0.00,WeatherDisplay:10.37,2013-05-13 01:40:00,
2013-05-12 20:45:00,47.0,27.3,29.98,North,355,2.0,4.0,46,0.00,CLR,,0.00,WeatherDisplay:10.37,2013-05-13 01:45:00,
2013-05-12 20:50:00,46.9,27.7,29.98,North,355,1.0,4.0,47,0.00,CLR,,0.00,WeatherDisplay:10.37,2013-05-13 01:50:00,
2013-05-12 20:55:00,46.6,27.4,29.98,North,355,0.0,3.0,47,0.00,CLR,,0.00,WeatherDisplay:10.37,2013-05-13 01:55:00,
2013-05-12 21:00:00,46.2,27.1,29.98,North,355,0.0,3.0,47,0.00,CLR,,0.00,WeatherDisplay:10.37,2013-05-13 02:00:00,
2013-05-12 21:05:00,46.1,27.0,29.98,North,356,0.0,3.0,47,0.00,CLR,,0.00,WeatherDisplay:10.37,2013-05-13 02:05:00,
2013-05-12 21:10:00,45.8,27.2,29.98,North,355,1.0,3.0,48,0.00,CLR,,0.00,WeatherDisplay:10.37,2013-05-13 02:10:00,
2013-05-12 21:15:00,45.8,27.2,29.99,North,1,1.0,4.0,48,0.00,CLR,,0.00,WeatherDisplay:10.37,2013-05-13 02:15:00,
2013-05-12 21:20:00,45.8,26.7,29.99,North,351,1.0,3.0,47,0.00,CLR,,0.00,WeatherDisplay:10.37,2013-05-13 02:20:00,
2013-05-12 21:25:00,45.7,27.1,29.99,NNW,340,0.0,3.0,48,0.00,CLR,,0.00,WeatherDisplay:10.37,2013-05-13 02:25:00,
2013-05-12 21:30:00,45.5,26.9,29.99,NNW,340,0.0,2.0,48,0.00,CLR,,0.00,WeatherDisplay:10.37,2013-05-13 02:30:00,
2013-05-12 21:35:00,45.5,26.9,29.99,NNW,340,0.0,2.0,48,0.00,CLR,,0.00,WeatherDisplay:10.37,2013-05-13 02:35:00,
2013-05-12 21:40:00,45.2,26.7,29.99,NNW,339,0.0,1.0,48,0.00,CLR,,0.00,WeatherDisplay:10.37,2013-05-13 02:40:00,
2013-05-12 21:45:00,45.4,26.3,29.99,NNW,340,1.0,2.0,47,0.00,CLR,,0.00,WeatherDisplay:10.37,2013-05-13 02:45:00,
2013-05-12 21:50:00,45.5,26.4,29.99,NNW,339,0.0,1.0,47,0.00,CLR,,0.00,WeatherDisplay:10.37,2013-05-13 02:50:00,
2013-05-12 21:55:00,45.7,26.6,29.99,NNW,340,0.0,0.0,47,0.00,CLR,,0.00,WeatherDisplay:10.37,2013-05-13 02:55:00,
2013-05-12 22:00:00,45.4,27.8,29.99,NNW,340,0.0,0.0,50,0.00,CLR,,0.00,WeatherDisplay:10.37,2013-05-13 03:00:00,
2013-05-12 22:05:00,45.4,28.8,29.99,NNW,339,0.0,1.0,52,0.00,CLR,,0.00,WeatherDisplay:10.37,2013-05-13 03:05:00,
2013-05-12 22:10:00,45.4,28.8,29.99,NNW,339,1.0,2.0,52,0.00,CLR,,0.00,WeatherDisplay:10.37,2013-05-13 03:10:00,
2013-05-12 22:15:00,45.1,29.4,29.99,NNW,340,0.0,1.0,54,0.00,CLR,,0.00,WeatherDisplay:10.37,2013-05-13 03:15:00,
2013-05-12 22:20:00,44.6,29.4,29.99,NNW,339,0.0,0.0,55,0.00,CLR,,0.00,WeatherDisplay:10.37,2013-05-13 03:20:00,
2013-05-12 22:25:00,44.1,29.4,29.99,NNW,339,0.0,0.0,56,0.00,CLR,,0.00,WeatherDisplay:10.37,2013-05-13 03:25:00,
2013-05-12 22:30:00,43.6,30.2,29.99,NNW,340,0.0,0.0,59,0.00,CLR,,0.00,WeatherDisplay:10.37,2013-05-13 03:30:00,
2013-05-12 22:35:00,43.3,30.7,29.99,NNW,340,0.0,3.0,61,0.00,CLR,,0.00,WeatherDisplay:10.37,2013-05-13 03:35:00,
2013-05-12 22:40:00,44.5,29.7,29.99,NNW,347,7.0,12.0,56,0.00,CLR,,0.00,WeatherDisplay:10.37,2013-05-13 03:40:00,
2013-05-12 22:45:00,44.8,27.7,30.00,North,2,7.0,15.0,51,0.00,CLR,,0.00,WeatherDisplay:10.37,2013-05-13 03:45:00,
2013-05-12 22:50:00,43.6,29.3,30.00,NNE,13,6.0,8.0,57,0.00,CLR,,0.00,WeatherDisplay:10.37,2013-05-13 03:50:00,
2013-05-12 22:55:00,42.8,29.0,30.00,NNE,20,3.0,10.0,58,0.00,CLR,,0.00,WeatherDisplay:10.37,2013-05-13 03:55:00,
2013-05-12 23:00:00,42.3,30.2,30.00,NE,39,5.0,10.0,62,0.00,CLR,,0.00,WeatherDisplay:10.37,2013-05-13 04:00:00,
2013-05-12 23:05:00,41.9,32.8,30.00,ENE,64,8.0,12.0,70,0.00,CLR,,0.00,WeatherDisplay:10.37,2013-05-13 04:05:00,
2013-05-12 23:10:00,41.1,34.1,30.00,ENE,74,6.0,14.0,76,0.00,CLR,,0.00,WeatherDisplay:10.37,2013-05-13 04:10:00,
2013-05-12 23:15:00,40.3,33.9,30.01,ENE,74,7.0,12.0,78,0.00,CLR,,0.00,WeatherDisplay:10.37,2013-05-13 04:15:00,
2013-05-12 23:20:00,39.7,34.0,30.01,ENE,69,6.0,12.0,80,0.00,CLR,,0.00,WeatherDisplay:10.37,2013-05-13 04:20:00,
2013-05-12 23:25:00,39.2,33.9,30.01,ENE,72,5.0,9.0,81,0.00,CLR,,0.00,WeatherDisplay:10.37,2013-05-13 04:25:00,
2013-05-12 23:30:00,38.9,33.6,30.01,ENE,75,5.0,11.0,81,0.00,CLR,,0.00,WeatherDisplay:10.37,2013-05-13 04:30:00,
2013-05-12 23:35:00,38.6,33.6,30.01,ENE,76,5.0,12.0,82,0.00,CLR,,0.00,WeatherDisplay:10.37,2013-05-13 04:35:00,
2013-05-12 23:45:00,38.0,33.9,30.01,East,79,6.0,10.0,85,0.00,CLR,,0.00,WeatherDisplay:10.37,2013-05-13 04:45:00,
2013-05-12 23:50:00,37.8,33.7,30.01,ENE,77,3.0,12.0,85,0.00,CLR,,0.00,WeatherDisplay:10.37,2013-05-13 04:50:00,
2013-05-12 23:55:00,37.5,33.7,30.01,ENE,75,5.0,8.0,86,0.00,CLR,,0.00,WeatherDisplay:10.37,2013-05-13 04:55:00,